createdAt,value
2022-10-31T00:02:12.244Z,110.32
2022-10-31T00:04:41.451Z,106.22
2022-10-31T00:07:12.095Z,116.13
2022-10-31T00:09:41.311Z,117.78
2022-10-31T00:12:10.520Z,99.05
2022-10-31T00:14:39.805Z,110.53
2022-10-31T00:17:08.879Z,112.85
2022-10-31T00:19:38.002Z,113.32
2022-10-31T00:22:07.138Z,126.88
2022-10-31T00:24:37.763Z,136.35
2022-10-31T00:27:06.889Z,120.07
2022-10-31T00:29:36.070Z,122.70
2022-10-31T00:32:05.292Z,121.93
2022-10-31T00:34:34.391Z,116.00
2022-10-31T00:37:03.584Z,118.75
2022-10-31T00:39:32.766Z,140.82
2022-10-31T00:42:03.425Z,129.93
2022-10-31T00:44:32.626Z,136.93
2022-10-31T00:47:01.768Z,144.05
2022-10-31T00:49:30.966Z,143.20
2022-10-31T00:52:00.137Z,155.50
2022-10-31T00:54:29.449Z,180.35
2022-10-31T00:56:58.614Z,172.38
2022-10-31T00:59:29.362Z,174.02
2022-10-31T01:01:58.652Z,172.88
2022-10-31T01:04:27.899Z,162.90
2022-10-31T01:06:57.115Z,158.10
2022-10-31T01:09:26.265Z,206.68
2022-10-31T01:11:55.493Z,223.32
2022-10-31T01:14:24.645Z,196.93
2022-10-31T01:16:55.363Z,231.27
2022-10-31T01:19:24.533Z,194.80
2022-10-31T01:21:56.625Z,199.32
2022-10-31T01:24:25.932Z,200.18
2022-10-31T01:26:55.078Z,183.63
2022-10-31T01:29:24.345Z,161.98
2022-10-31T01:31:55.084Z,152.88
2022-10-31T01:34:24.325Z,152.82
2022-10-31T01:36:53.756Z,156.43
2022-10-31T01:39:23.216Z,165.07
2022-10-31T01:41:55.442Z,159.45
2022-10-31T01:45:00.058Z,175.63
2022-10-31T01:47:41.250Z,159.82
2022-10-31T01:50:18.333Z,142.57
2022-10-31T01:52:50.814Z,145.18
2022-10-31T01:55:26.393Z,145.27
2022-10-31T01:58:02.941Z,124.05
2022-10-31T02:00:32.630Z,138.50
2022-10-31T02:03:03.713Z,138.90
2022-10-31T02:05:33.839Z,170.90
2022-10-31T02:08:07.727Z,163.88
2022-10-31T02:10:39.809Z,171.15
2022-10-31T02:13:11.049Z,160.07
2022-10-31T02:15:41.393Z,161.50
2022-10-31T02:18:12.683Z,176.25
2022-10-31T02:20:51.164Z,177.30
2022-10-31T02:24:01.474Z,183.88
2022-10-31T02:26:50.500Z,192.60
2022-10-31T02:29:57.269Z,229.50
2022-10-31T02:32:33.667Z,204.70
2022-10-31T02:35:12.047Z,202.00
2022-10-31T02:37:48.280Z,178.65
2022-10-31T02:40:24.814Z,173.48
2022-10-31T02:43:01.559Z,182.88
2022-10-31T02:45:34.319Z,177.82
2022-10-31T02:48:11.139Z,178.52
2022-10-31T02:50:45.282Z,170.10
2022-10-31T02:53:17.461Z,170.73
2022-10-31T02:55:54.046Z,182.40
2022-10-31T02:58:25.675Z,179.68
2022-10-31T03:01:12.649Z,173.60
2022-10-31T03:03:55.095Z,162.52
2022-10-31T03:06:31.864Z,168.73
2022-10-31T03:09:10.659Z,145.95
2022-10-31T03:11:47.703Z,154.35
2022-10-31T03:14:24.975Z,149.07
2022-10-31T03:16:56.040Z,144.30
2022-10-31T03:19:32.694Z,153.65
2022-10-31T03:22:07.553Z,135.40
2022-10-31T03:24:41.300Z,142.23
2022-10-31T03:27:14.595Z,140.90
2022-10-31T03:29:46.753Z,109.93
2022-10-31T03:32:20.864Z,99.45
2022-10-31T03:34:54.010Z,83.82
2022-10-31T03:37:25.002Z,78.65
2022-10-31T03:39:56.474Z,129.60
2022-10-31T03:42:28.828Z,97.45
2022-10-31T03:45:02.481Z,94.85
2022-10-31T03:47:32.231Z,93.13
2022-10-31T03:50:03.028Z,85.03
2022-10-31T03:52:38.406Z,82.95
2022-10-31T03:55:12.488Z,76.13
2022-10-31T03:57:46.891Z,65.68
2022-10-31T04:00:17.854Z,57.83
2022-10-31T04:02:53.237Z,54.58
2022-10-31T04:05:24.534Z,56.45
2022-10-31T04:07:57.641Z,57.88
2022-10-31T04:10:32.018Z,45.28
2022-10-31T04:13:08.669Z,51.97
2022-10-31T04:15:39.958Z,60.30
2022-10-31T04:18:10.566Z,77.45
2022-10-31T04:20:43.179Z,55.83
2022-10-31T04:23:21.200Z,105.22
2022-10-31T04:25:50.372Z,89.82
2022-10-31T04:30:48.649Z,85.10
2022-10-31T04:33:17.825Z,59.22
2022-10-31T04:35:48.795Z,60.20
2022-10-31T04:38:17.984Z,61.15
2022-10-31T04:40:48.385Z,56.92
2022-10-31T04:43:17.614Z,54.65
2022-10-31T04:45:46.861Z,56.47
2022-10-31T04:48:16.184Z,52.13
2022-10-31T04:50:45.404Z,43.15
2022-10-31T04:53:16.085Z,54.45
2022-10-31T04:55:45.220Z,59.47
2022-10-31T04:58:14.428Z,60.30
2022-10-31T05:00:43.691Z,44.13
2022-10-31T05:03:12.944Z,23.58
2022-10-31T05:05:42.124Z,33.40
2022-10-31T05:08:11.320Z,30.60
2022-10-31T05:10:42.010Z,20.73
2022-10-31T05:13:11.578Z,27.92
2022-10-31T05:15:40.803Z,28.02
2022-10-31T05:18:10.166Z,36.08
2022-10-31T05:20:39.224Z,36.78
2022-10-31T05:23:08.300Z,31.40
2022-10-31T05:25:37.497Z,35.05
2022-10-31T05:28:08.228Z,31.42
2022-10-31T05:30:37.586Z,34.22
2022-10-31T05:33:06.737Z,34.50
2022-10-31T05:35:36.170Z,33.53
2022-10-31T05:38:07.777Z,31.45
2022-10-31T05:40:36.884Z,38.72
2022-10-31T05:43:07.520Z,43.47
2022-10-31T05:45:36.622Z,40.70
2022-10-31T05:48:06.243Z,46.20
2022-10-31T05:50:35.712Z,37.22
2022-10-31T05:53:06.662Z,38.75
2022-10-31T05:55:36.179Z,42.97
2022-10-31T05:58:09.699Z,39.67
2022-10-31T06:00:38.902Z,30.88
2022-10-31T06:05:42.140Z,29.17
2022-10-31T06:08:14.376Z,32.22
2022-10-31T06:10:45.358Z,36.63
2022-10-31T06:13:15.983Z,30.48
2022-10-31T06:15:48.265Z,27.33
2022-10-31T06:18:19.634Z,31.45
2022-10-31T06:20:48.737Z,36.08
2022-10-31T06:23:17.769Z,32.75
2022-10-31T06:25:50.896Z,32.50
2022-10-31T06:28:21.572Z,31.80
2022-10-31T06:30:52.603Z,19.52
2022-10-31T06:33:21.612Z,28.15
2022-10-31T06:35:50.972Z,21.70
2022-10-31T06:38:20.057Z,24.35
2022-10-31T06:40:49.124Z,21.40
2022-10-31T06:43:18.160Z,17.60
2022-10-31T06:45:48.798Z,21.83
2022-10-31T06:48:18.611Z,22.45
2022-10-31T06:50:47.979Z,24.60
2022-10-31T06:53:17.477Z,29.15
2022-10-31T06:55:46.559Z,26.98
2022-10-31T06:58:15.819Z,33.40
2022-10-31T07:00:44.947Z,37.83
2022-10-31T07:03:16.886Z,37.38
2022-10-31T07:05:46.190Z,26.23
2022-10-31T07:08:19.157Z,23.52
2022-10-31T07:10:55.014Z,22.77
2022-10-31T07:13:26.983Z,20.33
2022-10-31T07:15:57.810Z,24.38
2022-10-31T07:18:28.446Z,27.75
2022-10-31T07:20:59.863Z,23.83
2022-10-31T07:23:29.166Z,30.73
2022-10-31T07:25:59.843Z,26.83
2022-10-31T07:28:33.071Z,25.05
2022-10-31T07:31:04.241Z,43.88
2022-10-31T07:33:34.908Z,36.00
2022-10-31T07:36:04.000Z,40.53
2022-10-31T07:38:33.200Z,34.17
2022-10-31T07:41:02.448Z,39.25
2022-10-31T07:43:31.554Z,43.30
2022-10-31T07:46:00.547Z,47.55
2022-10-31T07:48:29.624Z,73.03
2022-10-31T07:51:00.221Z,97.05
2022-10-31T07:53:29.319Z,50.13
2022-10-31T07:55:58.372Z,45.20
2022-10-31T07:58:27.523Z,60.72
2022-10-31T08:00:56.716Z,45.42
2022-10-31T08:03:25.826Z,38.42
2022-10-31T08:05:55.007Z,31.80
2022-10-31T08:08:26.098Z,38.10
2022-10-31T08:10:55.249Z,32.50
2022-10-31T08:13:24.529Z,35.47
2022-10-31T08:15:58.233Z,28.15
2022-10-31T08:18:27.483Z,34.67
2022-10-31T08:20:56.829Z,46.28
2022-10-31T08:23:27.400Z,36.63
2022-10-31T08:25:56.519Z,38.63
2022-10-31T08:28:25.607Z,29.30
2022-10-31T08:30:54.700Z,50.95
2022-10-31T08:33:23.798Z,56.55
2022-10-31T08:35:52.970Z,57.70
2022-10-31T08:38:22.080Z,60.40
2022-10-31T08:40:53.052Z,47.50
2022-10-31T08:43:24.279Z,45.97
2022-10-31T08:45:56.352Z,44.53
2022-10-31T08:48:33.491Z,49.47
2022-10-31T08:51:04.424Z,50.08
2022-10-31T08:53:33.578Z,56.55
2022-10-31T08:56:07.085Z,56.42
2022-10-31T08:58:40.122Z,59.75
2022-10-31T09:01:11.099Z,69.38
2022-10-31T09:03:40.231Z,40.53
2022-10-31T09:06:10.434Z,37.35
2022-10-31T09:08:39.861Z,33.72
2022-10-31T09:11:10.477Z,31.13
2022-10-31T09:13:41.278Z,37.63
2022-10-31T09:16:10.790Z,37.17
2022-10-31T09:18:40.007Z,33.95
2022-10-31T09:21:10.234Z,38.10
2022-10-31T09:23:39.318Z,35.63
2022-10-31T09:26:09.880Z,29.73
2022-10-31T09:28:39.002Z,28.67
2022-10-31T09:31:08.038Z,36.22
2022-10-31T09:33:37.088Z,41.53
2022-10-31T09:36:06.596Z,41.00
2022-10-31T09:38:35.665Z,53.78
2022-10-31T09:41:19.251Z,51.47
2022-10-31T09:43:59.762Z,55.88
2022-10-31T09:46:41.635Z,56.53
2022-10-31T09:49:34.302Z,82.30
2022-10-31T09:52:06.519Z,83.68
2022-10-31T09:54:43.273Z,78.40
2022-10-31T09:57:20.443Z,73.55
2022-10-31T09:59:50.964Z,61.60
2022-10-31T10:02:26.191Z,56.58
2022-10-31T10:04:59.933Z,73.35
2022-10-31T10:07:43.545Z,86.50
2022-10-31T10:10:20.181Z,97.40
2022-10-31T10:13:21.953Z,83.82
2022-10-31T10:16:05.588Z,70.68
2022-10-31T10:18:46.329Z,65.65
2022-10-31T10:21:28.842Z,68.72
2022-10-31T10:24:10.590Z,57.00
2022-10-31T10:26:41.188Z,62.33
2022-10-31T10:29:35.973Z,50.17
2022-10-31T10:32:13.006Z,50.58
2022-10-31T10:34:48.415Z,69.43
2022-10-31T10:37:25.760Z,56.38
2022-10-31T10:39:58.599Z,57.95
2022-10-31T10:42:47.717Z,100.18
2022-10-31T10:45:37.922Z,128.05
2022-10-31T10:48:17.112Z,165.43
2022-10-31T10:50:52.324Z,124.13
2022-10-31T10:53:38.418Z,147.68
2022-10-31T10:56:19.117Z,174.70
2022-10-31T10:58:48.651Z,179.75
2022-10-31T11:01:19.315Z,207.27
2022-10-31T11:03:48.678Z,173.00
2022-10-31T11:06:23.698Z,190.10
2022-10-31T11:08:52.854Z,221.93
2022-10-31T11:11:29.368Z,178.13
2022-10-31T11:14:02.854Z,151.75
2022-10-31T11:16:41.002Z,145.68
2022-10-31T11:19:21.951Z,115.43
2022-10-31T11:21:54.209Z,109.80
2022-10-31T11:24:28.888Z,149.73
2022-10-31T11:27:14.621Z,130.73
2022-10-31T11:32:23.944Z,107.53
2022-10-31T11:34:56.771Z,105.43
2022-10-31T11:37:29.071Z,115.20
2022-10-31T11:40:01.215Z,104.60
2022-10-31T11:42:39.122Z,118.78
2022-10-31T11:45:17.587Z,120.43
2022-10-31T11:47:59.165Z,102.18
2022-10-31T11:50:34.260Z,126.43
2022-10-31T11:53:04.567Z,134.80
2022-10-31T11:55:35.780Z,132.52
2022-10-31T11:58:05.237Z,125.32
2022-10-31T12:00:36.063Z,153.05
2022-10-31T12:03:20.187Z,173.75
2022-10-31T12:05:52.555Z,157.80
2022-10-31T12:08:22.004Z,146.32
2022-10-31T12:10:59.104Z,216.55
2022-10-31T12:13:36.946Z,168.98
2022-10-31T12:16:17.034Z,136.85
2022-10-31T12:19:03.022Z,150.05
2022-10-31T12:21:51.980Z,142.52
2022-10-31T12:24:31.005Z,126.40
2022-10-31T12:27:10.072Z,136.65
2022-10-31T12:30:04.326Z,122.40
2022-10-31T12:32:43.950Z,129.73
2022-10-31T12:35:42.886Z,102.28
2022-10-31T12:38:45.171Z,96.03
2022-10-31T12:41:35.109Z,100.72
2022-10-31T12:44:11.734Z,88.35
2022-10-31T12:47:04.586Z,91.72
2022-10-31T12:49:56.190Z,78.38
2022-10-31T12:52:53.602Z,83.97
2022-10-31T12:55:39.513Z,68.53
2022-10-31T12:58:15.064Z,63.75
2022-10-31T13:00:49.641Z,60.72
2022-10-31T13:03:28.201Z,80.32
2022-10-31T13:06:03.753Z,75.45
2022-10-31T13:08:46.111Z,72.53
2022-10-31T13:11:19.839Z,63.13
2022-10-31T13:13:55.643Z,79.63
2022-10-31T13:16:28.819Z,104.10
2022-10-31T13:19:01.223Z,81.45
2022-10-31T13:21:35.701Z,109.75
2022-10-31T13:24:11.596Z,126.35
2022-10-31T13:29:20.421Z,87.43
2022-10-31T13:31:49.684Z,107.20
2022-10-31T13:34:27.245Z,118.88
2022-10-31T13:37:06.718Z,137.45
2022-10-31T13:39:49.773Z,180.50
2022-10-31T13:42:30.646Z,173.68
2022-10-31T13:45:16.330Z,160.98
2022-10-31T13:50:26.224Z,149.20
2022-10-31T13:53:06.204Z,137.20
2022-10-31T13:55:43.040Z,125.07
2022-10-31T13:58:26.249Z,142.27
2022-10-31T14:01:17.145Z,134.27
2022-10-31T14:04:12.990Z,128.18
2022-10-31T14:06:48.460Z,112.13
2022-10-31T14:09:30.275Z,107.03
2022-10-31T14:12:04.581Z,126.93
2022-10-31T14:14:44.975Z,95.18
2022-10-31T14:17:29.823Z,87.63
2022-10-31T14:20:28.324Z,140.55
2022-10-31T14:22:57.430Z,156.50
2022-10-31T14:25:32.392Z,177.15
2022-10-31T14:28:06.725Z,181.23
2022-10-31T14:30:35.984Z,158.43
2022-10-31T14:33:14.899Z,154.15
2022-10-31T14:35:55.516Z,109.93
2022-10-31T14:38:38.433Z,113.57
2022-10-31T14:41:33.065Z,112.60
2022-10-31T14:44:22.090Z,100.25
2022-10-31T14:47:01.036Z,100.60
2022-10-31T14:49:47.499Z,111.63
2022-10-31T14:52:20.224Z,144.90
2022-10-31T14:54:54.023Z,150.57
2022-10-31T14:57:30.472Z,132.40
2022-10-31T15:00:08.808Z,145.48
2022-10-31T15:02:50.224Z,147.52
2022-10-31T15:05:22.824Z,127.72
2022-10-31T15:07:55.230Z,128.10
2022-10-31T15:10:31.180Z,141.02
2022-10-31T15:15:48.353Z,100.57
2022-10-31T15:18:31.639Z,117.32
2022-10-31T15:21:09.991Z,75.65
2022-10-31T15:26:32.595Z,84.28
2022-10-31T15:29:03.694Z,80.82
2022-10-31T15:31:36.361Z,54.72
2022-10-31T15:34:12.657Z,68.72
2022-10-31T15:36:44.867Z,60.35
2022-10-31T15:39:14.600Z,54.08
2022-10-31T15:41:54.912Z,53.83
2022-10-31T15:44:27.653Z,43.63
2022-10-31T15:47:04.085Z,53.58
2022-10-31T15:49:40.113Z,52.88
2022-10-31T15:52:15.947Z,45.33
2022-10-31T15:54:55.718Z,39.60
2022-10-31T15:57:25.530Z,49.28
2022-10-31T15:59:58.008Z,46.47
2022-10-31T16:02:32.767Z,49.17
2022-10-31T16:05:04.007Z,41.78
2022-10-31T16:07:33.812Z,45.47
2022-10-31T16:10:06.436Z,42.60
2022-10-31T16:12:41.816Z,39.05
2022-10-31T16:15:18.072Z,42.03
2022-10-31T16:17:59.248Z,43.65
2022-10-31T16:20:36.549Z,38.33
2022-10-31T16:23:32.848Z,41.40
2022-10-31T16:26:13.483Z,44.47
2022-10-31T16:28:53.431Z,45.72
2022-10-31T16:31:32.650Z,43.15
2022-10-31T16:34:26.367Z,44.40
2022-10-31T16:36:56.547Z,41.20
2022-10-31T16:39:25.828Z,41.25
2022-10-31T16:41:58.918Z,45.60
2022-10-31T16:44:31.285Z,39.58
2022-10-31T16:47:18.189Z,45.28
2022-10-31T16:49:51.645Z,50.53
2022-10-31T16:52:21.011Z,52.00
2022-10-31T16:54:54.417Z,52.67
2022-10-31T16:57:29.035Z,47.88
2022-10-31T17:00:00.422Z,44.17
2022-10-31T17:02:32.102Z,41.58
2022-10-31T17:05:07.414Z,45.28
2022-10-31T17:07:36.603Z,47.40
2022-10-31T17:10:06.318Z,53.85
2022-10-31T17:12:35.935Z,61.75
2022-10-31T17:15:05.759Z,65.53
2022-10-31T17:17:34.899Z,62.60
2022-10-31T17:20:17.646Z,56.95
2022-10-31T17:22:46.694Z,57.88
2022-10-31T17:25:19.171Z,69.30
2022-10-31T17:27:48.768Z,50.97
2022-10-31T17:30:19.116Z,48.90
2022-10-31T17:32:49.439Z,44.63
2022-10-31T17:35:20.917Z,42.83
2022-10-31T17:37:50.464Z,52.70
2022-10-31T17:40:22.206Z,47.97
2022-10-31T17:42:52.319Z,56.38
2022-10-31T17:45:22.069Z,57.13
2022-10-31T17:47:51.782Z,52.33
2022-10-31T17:50:24.231Z,56.40
2022-10-31T17:52:53.622Z,48.78
2022-10-31T17:55:22.982Z,46.33
2022-10-31T17:57:52.136Z,53.78
2022-10-31T18:00:24.467Z,46.95
2022-10-31T18:02:53.794Z,39.88
2022-10-31T18:05:24.370Z,40.33
2022-10-31T18:07:53.550Z,46.85
2022-10-31T18:10:22.715Z,46.67
2022-10-31T18:12:51.754Z,46.10
2022-10-31T18:15:20.982Z,39.72
2022-10-31T18:17:50.118Z,39.88
2022-10-31T18:20:19.366Z,39.95
2022-10-31T18:22:50.135Z,34.05
2022-10-31T18:25:19.409Z,35.35
2022-10-31T18:27:48.595Z,36.67
2022-10-31T18:30:19.161Z,29.08
2022-10-31T18:32:51.451Z,27.15
2022-10-31T18:35:21.016Z,27.88
2022-10-31T18:37:51.740Z,29.85
2022-10-31T18:40:20.852Z,27.48
2022-10-31T18:42:50.046Z,28.40
2022-10-31T18:45:32.485Z,33.50
2022-10-31T18:48:08.852Z,29.60
2022-10-31T18:50:41.365Z,30.65
2022-10-31T18:53:12.161Z,26.17
2022-10-31T18:55:45.451Z,25.52
2022-10-31T18:58:18.715Z,25.27
2022-10-31T19:00:47.988Z,27.48
2022-10-31T19:03:19.700Z,21.50
2022-10-31T19:05:52.690Z,25.02
2022-10-31T19:08:23.396Z,27.23
2022-10-31T19:10:52.542Z,20.35
2022-10-31T19:13:21.660Z,25.88
2022-10-31T19:15:51.017Z,23.75
2022-10-31T19:18:20.133Z,25.80
2022-10-31T19:20:49.223Z,29.42
2022-10-31T19:23:18.336Z,25.20
2022-10-31T19:25:48.927Z,21.73
2022-10-31T19:28:18.038Z,21.98
2022-10-31T19:30:55.197Z,22.73
2022-10-31T19:33:29.593Z,21.75
2022-10-31T19:36:02.913Z,24.27
2022-10-31T19:38:32.353Z,23.90
2022-10-31T19:41:05.247Z,24.85
2022-10-31T19:43:34.515Z,25.15
2022-10-31T19:46:05.408Z,25.67
2022-10-31T19:48:37.263Z,27.05
2022-10-31T19:51:08.311Z,20.25
2022-10-31T19:53:38.629Z,31.48
2022-10-31T19:56:13.736Z,28.50
2022-10-31T19:58:43.314Z,31.40
2022-10-31T20:01:13.551Z,27.35
2022-10-31T20:03:44.360Z,28.08
2022-10-31T20:06:18.421Z,26.73
2022-10-31T20:08:47.493Z,31.52
2022-10-31T20:11:18.600Z,27.23
2022-10-31T20:13:47.709Z,27.27
2022-10-31T20:16:18.281Z,30.65
2022-10-31T20:18:48.448Z,34.33
2022-10-31T20:21:19.339Z,31.25
2022-10-31T20:23:48.930Z,36.17
2022-10-31T20:26:21.277Z,40.40
2022-10-31T20:28:50.542Z,39.83
2022-10-31T20:31:21.590Z,45.17
2022-10-31T20:33:51.291Z,41.42
2022-10-31T20:36:21.551Z,42.00
2022-10-31T20:38:51.388Z,39.97
2022-10-31T20:41:22.026Z,39.60
2022-10-31T20:43:51.119Z,34.80
2022-10-31T20:46:22.202Z,35.15
2022-10-31T20:48:52.162Z,38.05
2022-10-31T20:51:22.909Z,37.20
2022-10-31T20:53:52.514Z,34.65
2022-10-31T20:56:24.895Z,32.85
2022-10-31T20:58:55.357Z,31.40
2022-10-31T21:01:26.311Z,33.30
2022-10-31T21:03:55.755Z,30.15
2022-10-31T21:06:25.138Z,32.63
2022-10-31T21:08:54.662Z,29.80
2022-10-31T21:11:27.571Z,38.90
2022-10-31T21:13:57.223Z,29.75
2022-10-31T21:16:28.976Z,31.60
2022-10-31T21:18:58.757Z,32.58
2022-10-31T21:21:32.368Z,29.20
2022-10-31T21:24:03.495Z,30.52
2022-10-31T21:26:37.520Z,31.48
2022-10-31T21:29:07.593Z,32.22
2022-10-31T21:31:38.459Z,22.10
2022-10-31T21:34:46.183Z,26.08
2022-10-31T21:37:30.639Z,22.55
2022-10-31T21:40:00.098Z,24.38
2022-10-31T21:42:43.261Z,26.08
2022-10-31T21:45:12.575Z,28.10
2022-10-31T21:47:45.753Z,30.98
2022-10-31T21:50:25.472Z,29.88
2022-10-31T21:52:54.765Z,24.02
2022-10-31T21:55:22.785Z,27.70
2022-10-31T21:57:53.471Z,25.08
2022-10-31T22:00:22.688Z,25.98
2022-10-31T22:02:51.856Z,23.83
2022-10-31T22:05:20.955Z,28.48
2022-10-31T22:07:50.027Z,22.25
2022-10-31T22:10:19.216Z,23.95
2022-10-31T22:12:48.389Z,28.63
2022-10-31T22:15:23.175Z,27.08
2022-10-31T22:17:52.387Z,26.67
2022-10-31T22:20:24.964Z,26.45
2022-10-31T22:22:54.069Z,28.40
2022-10-31T22:25:23.290Z,25.10
2022-10-31T22:27:54.341Z,32.05
2022-10-31T22:30:24.987Z,27.30
2022-10-31T22:32:54.367Z,24.25
2022-10-31T22:35:23.559Z,25.90
2022-10-31T22:37:52.697Z,23.55
2022-10-31T22:40:21.858Z,26.85
2022-10-31T22:42:51.011Z,28.15
2022-10-31T22:45:21.161Z,23.88
2022-10-31T22:47:51.843Z,28.38
2022-10-31T22:50:20.985Z,27.77
2022-10-31T22:52:50.239Z,27.17
2022-10-31T22:55:19.445Z,24.25
2022-10-31T22:57:48.573Z,31.20
2022-10-31T23:00:18.935Z,25.00
2022-10-31T23:02:48.036Z,29.00
2022-10-31T23:05:18.797Z,29.63
2022-10-31T23:07:47.934Z,40.50
2022-10-31T23:10:17.205Z,34.22
2022-10-31T23:13:03.364Z,29.42
2022-10-31T23:15:32.554Z,31.77
2022-10-31T23:18:01.913Z,37.88
2022-10-31T23:20:32.824Z,32.35
2022-10-31T23:23:02.366Z,34.85
2022-10-31T23:25:48.542Z,35.70
2022-10-31T23:28:17.705Z,33.97
2022-10-31T23:30:48.117Z,29.10
2022-10-31T23:33:17.248Z,32.25
2022-10-31T23:35:48.113Z,27.60
2022-10-31T23:38:17.537Z,29.38
2022-10-31T23:40:46.916Z,35.05
2022-10-31T23:43:16.498Z,33.42
2022-10-31T23:45:46.129Z,35.97
2022-10-31T23:48:15.256Z,36.67
2022-10-31T23:50:44.412Z,39.15
2022-10-31T23:53:15.044Z,36.60
2022-10-31T23:55:44.173Z,40.33
2022-10-31T23:58:13.309Z,38.10
